Aérodrome :
LOGIN :

S'inscrire | Disclaimer

   EN    FR    IT 

 










Légende :    VFR   VFR Marginal   IFR   IFR Intensif   IFR Très Intensif
Visi : 
Plafond : 
>= 8 km
>= 3000ft
5 à 8 km
1000 à 3000 ft
1500m à 5 km
500 à 1000 ft
800 à 1500m
200 à 500 ft
< 800m
< 200 ft
Symboles :   Orages  Brouillard  Fortes neiges  Fortes précipitations  Vent > 20 kt
SIGMETs :   Divers  Orages  Givrage  Turbulence  Onde Orograph.  Cendres Volcan.






- Altitude de l'aérodrome : 464 ft
- Code IATA : EVX


LFOE - Evreux

DERNIER METAR :
  • 122130Z AUTO 21011KT 9999 FEW017 BKN034 OVC040 08/07 Q0983

METARs EXPIRÉS :
  • 122100Z AUTO 21010KT 9999 FEW019 OVC041 07/07 Q0984
  • 122030Z AUTO 22010KT 9999 FEW031 BKN042 OVC048 07/06 Q0984
  • 122000Z AUTO 22009KT 9999 SCT019 BKN042 BKN048 07/06 Q0985
  • 121930Z AUTO 21010KT 9999 FEW014 BKN029 OVC048 07/06 Q0985
  • 121900Z AUTO 20012KT 9999 FEW008 BKN014 BKN019 07/06 Q0985

TAF TAF LFOE
Valide du 12 à 15h jusqu'au 13 à 15h UTC


121400Z 1215/1315 18020G30KT 6000 -RA OVC008
TEMPO 1215/1218 2500 RADZ OVC004
BECMG 1218/1219 25020G30KT 9999 NSW BKN018 BKN028
BECMG 1221/1223 22020G30KT 4000 RA OVC025
BECMG 1302/1304 28020G32KT 9999 NSW BKN030
TEMPO 1223/1315 30025G40KT 2000 TSRAGS BKN020CB
PROB30
TEMPO 1302/1312 VRB30G50KT 1200 TSRAGR



MET'MAP, la Météo Aéronautique d'un coup d'oeil ! - Copyright ORBIFLY Décembre 2007 - Disclaimer

ORBIFLY MET'MAP TEAM :

Programmation & Développement : Alexandra Zaïnal
Sur une idée originale de : Baudouin d'Aumeries
Assistance à la programmation : Marc-Olivier Méhu
Soutien technique & logistique : Manuel Goepfert

Contact : metmap@orbifly.com




SOURCES & CREDITS :

   NOAA